Terminal Aerodrome Forecast
Issued by NWS Cleveland, OH

Home | Current Version | Previous Version | Text Only | Print | Product List | Glossary Off
Versions: 1 2 3 4 5 6 7 8 9 10 11 12 13 14 15 16 17 18 19

867
FTUS41 KCLE 212332
TAFTOL
TAF
KTOL 212332Z 2200/2224 06010KT P6SM OVC090
      TEMPO 2200/2203 4SM -SHRA BR OVC035
     FM220300 08005KT P6SM OVC025
     FM221000 00000KT 1 1/2SM BR OVC003
     FM221100 00000KT 1/2SM FG OVC003
     FM221200 00000KT 2SM BR OVC003
     FM221400 24006KT 4SM BR OVC015
     FM221800 30010KT P6SM OVC035=

USA.gov is the U.S. government's official web portal to all federal, state and local government web resources and services.